| time (UTC) | temp C | wind direction | speed KPH | gust KPH | rain 1hr cm | rain 24hr cm | rain mn cm | humidity % | barometer mb |
| 20260504110232 | 19 | 315 | 37.0 | 53.1 | 0.00 | 0.08 | 0.08 | 41 | 1016.5 |
| 20260504100225 | 16 | 315 | 24.1 | 37.0 | 0.00 | 0.08 | 0.08 | 51 | 1017.0 |
| 20260504081709 | 15 | 0 | 17.7 | 40.2 | 0.00 | 0.08 | 0.08 | 56 | 1016.5 |
| 20260504080207 | 15 | 0 | 24.1 | 35.4 | 0.00 | 0.08 | 0.08 | 55 | 1016.7 |
| 20260504070159 | 15 | 0 | 19.3 | 38.6 | 0.00 | 0.08 | 0.08 | 54 | 1015.9 |
| 20260504060150 | 15 | 0 | 19.3 | 33.8 | 0.00 | 0.08 | 0.08 | 54 | 1015.2 |
| 20260504050141 | 14 | 45 | 30.6 | 38.6 | 0.00 | 0.08 | 0.08 | 54 | 1014.9 |
| 20260504044639 | 14 | 315 | 17.7 | 43.5 | 0.00 | 0.08 | 0.08 | 54 | 1014.8 |
| 20260504043137 | 14 | 315 | 35.4 | 43.5 | 0.00 | 0.08 | 0.08 | 55 | 1014.6 |
| 20260504041635 | 13 | 0 | 20.9 | 41.8 | 0.00 | 0.08 | 0.08 | 58 | 1014.6 |
| 20260504040132 | 13 | 315 | 25.7 | 37.0 | 0.00 | 0.08 | 0.08 | 60 | 1014.3 |
| 20260504034630 | 13 | 0 | 27.4 | 40.2 | 0.00 | 0.08 | 0.08 | 61 | 1014.1 |
| 20260504033128 | 13 | 315 | 30.6 | 41.8 | 0.00 | 0.08 | 0.08 | 61 | 1013.9 |
| 20260504031626 | 13 | 0 | 16.1 | 43.5 | 0.00 | 0.08 | 0.08 | 62 | 1013.9 |
| 20260504030124 | 13 | 0 | 27.4 | 48.3 | 0.00 | 0.08 | 0.08 | 63 | 1013.9 |
| 20260504024622 | 13 | 0 | 22.5 | 41.8 | 0.00 | 0.08 | 0.08 | 63 | 1013.6 |
| 20260504023120 | 13 | 0 | 25.7 | 41.8 | 0.00 | 0.08 | 0.08 | 66 | 1013.4 |
| 20260504021618 | 13 | 0 | 25.7 | 48.3 | 0.00 | 0.08 | 0.08 | 67 | 1013.2 |
| 20260504020115 | 13 | 0 | 27.4 | 48.3 | 0.00 | 0.08 | 0.08 | 68 | 1013.4 |
| 20260504014614 | 13 | 338 | 35.4 | 53.1 | 0.00 | 0.08 | 0.08 | 66 | 1013.7 |
| 20260504013112 | 13 | 338 | 12.9 | 41.8 | 0.00 | 0.08 | 0.08 | 64 | 1013.2 |
| 20260504011609 | 13 | 315 | 37.0 | 48.3 | 0.00 | 0.08 | 0.08 | 64 | 1013.2 |
| 20260504010114 | 13 | 45 | 24.1 | 43.5 | 0.00 | 0.08 | 0.08 | 64 | 1013.3 |
| 20260504004605 | 13 | 315 | 35.4 | 46.7 | 0.00 | 0.08 | 0.08 | 65 | 1013.1 |
| 20260504003103 | 12 | 0 | 20.9 | 38.6 | 0.03 | 0.08 | 0.08 | 68 | 1013.5 |
| 20260504001601 | 12 | 315 | 22.5 | 43.5 | 0.03 | 0.08 | 0.08 | 69 | 1013.7 |
| 20260504000058 | 12 | 315 | 37.0 | 57.9 | 0.08 | 0.08 | 0.08 | 69 | 1013.6 |
| 20260503234556 | 12 | 0 | 30.6 | 43.5 | 0.08 | 0.08 | 0.08 | 68 | 1013.7 |
| 20260503233055 | 13 | 0 | 27.4 | 48.3 | 0.03 | 0.03 | 0.03 | 66 | 1013.8 |
| 20260503231552 | 13 | 315 | 20.9 | 43.5 | 0.03 | 0.03 | 0.03 | 62 | 1013.9 |
| 20260503230050 | 13 | 315 | 19.3 | 33.8 | 0.00 | 0.00 | 0.00 | 60 | 1013.6 |
| 20260503224547 | 13 | 338 | 17.7 | 37.0 | 0.00 | 0.00 | 0.00 | 59 | 1013.5 |
| 20260503223046 | 13 | 315 | 27.4 | 43.5 | 0.00 | 0.00 | 0.00 | 59 | 1013.7 |
| 20260503221543 | 13 | 315 | 24.1 | 40.2 | 0.00 | 0.00 | 0.00 | 61 | 1013.8 |
| 20260503220041 | 13 | 315 | 4.8 | 43.5 | 0.00 | 0.00 | 0.00 | 61 | 1013.3 |
| 20260503214539 | 13 | 0 | 25.7 | 48.3 | 0.00 | 0.00 | 0.00 | 62 | 1013.3 |
| 20260503213038 | 13 | 0 | 29.0 | 41.8 | 0.00 | 0.00 | 0.00 | 64 | 1012.8 |
| 20260503211535 | 13 | 0 | 43.5 | 56.3 | 0.00 | 0.00 | 0.00 | 63 | 1013.2 |
| 20260503210033 | 14 | 0 | 37.0 | 69.2 | 0.00 | 0.00 | 0.00 | 57 | 1013.3 |
| 20260503204530 | 14 | 315 | 30.6 | 49.9 | 0.00 | 0.00 | 0.00 | 54 | 1013.0 |
| 20260503203028 | 14 | 45 | 4.8 | 22.5 | 0.00 | 0.00 | 0.00 | 53 | 1013.1 |
| 20260503201526 | 14 | 0 | 17.7 | 38.6 | 0.00 | 0.00 | 0.00 | 52 | 1013.0 |
| 20260503200024 | 14 | 315 | 33.8 | 38.6 | 0.00 | 0.00 | 0.00 | 52 | 1013.1 |
| 20260503194522 | 14 | 315 | 12.9 | 27.4 | 0.00 | 0.00 | 0.00 | 52 | 1013.0 |
| 20260503193020 | 14 | 0 | 24.1 | 33.8 | 0.00 | 0.00 | 0.00 | 54 | 1013.1 |
| 20260503191517 | 14 | 0 | 14.5 | 35.4 | 0.00 | 0.00 | 0.00 | 54 | 1012.9 |
| 20260503190015 | 14 | 315 | 16.1 | 27.4 | 0.00 | 0.00 | 0.00 | 55 | 1013.1 |
| 20260503184514 | 14 | 0 | 14.5 | 27.4 | 0.00 | 0.00 | 0.00 | 55 | 1013.0 |
| 20260503183014 | 14 | 315 | 24.1 | 33.8 | 0.00 | 0.00 | 0.00 | 53 | 1012.8 |
| 20260503181508 | 14 | 0 | 19.3 | 40.2 | 0.00 | 0.00 | 0.00 | 52 | 1013.0 |
| 20260503180007 | 14 | 315 | 32.2 | 45.1 | 0.00 | 0.00 | 0.00 | 53 | 1012.8 |
| 20260503174505 | 14 | 45 | 11.3 | 20.9 | 0.00 | 0.00 | 0.00 | 52 | 1012.8 |
| 20260503173003 | 14 | 315 | 19.3 | 38.6 | 0.00 | 0.00 | 0.00 | 52 | 1012.5 |
| 20260503171501 | 14 | 0 | 32.2 | 38.6 | 0.00 | 0.00 | 0.00 | 54 | 1012.9 |